Time;durP1;ratioP1;P1;durP2;ratioP2;P2;SDS_P1;SDS_P2;PMS_P1;PMS_P2;Temp;Humidity;BMP_temperature;BMP_pressure;BME280_temperature;BME280_humidity;BME280_pressure;Samples;Min_cycle;Max_cycle;Signal;HPM_P1;HPM_P2
2023/07/14 00:00:31;;;;;;;5.03;2.60;;;;;18.30;96685.00;;;;8248617;28;20820;-66
2023/07/14 00:04:35;;;;;;;2.90;2.63;;;;;18.30;96675.00;;;;8250587;28;20349;-66
2023/07/14 00:08:45;;;;;;;3.05;2.60;;;;;18.40;96678.00;;;;8240423;28;20206;-66
2023/07/14 00:12:53;;;;;;;2.92;2.40;;;;;18.40;96680.00;;;;8248075;28;20704;-65
2023/07/14 00:16:58;;;;;;;2.60;2.47;;;;;18.30;96676.00;;;;8253288;28;20217;-66
2023/07/14 00:21:03;;;;;;;4.68;2.75;;;;;18.20;96681.00;;;;8260265;28;20230;-66
2023/07/14 00:25:12;;;;;;;5.72;2.40;;;;;18.20;96677.00;;;;8256987;28;20716;-66
2023/07/14 00:29:31;;;;;;;3.78;2.58;;;;;18.10;96679.00;;;;8259359;28;20290;-65
2023/07/14 00:33:34;;;;;;;3.83;2.80;;;;;18.00;96663.00;;;;8258033;28;20765;-67
2023/07/14 00:37:39;;;;;;;10.07;2.85;;;;;18.00;96661.00;;;;8257215;28;20249;-67
2023/07/14 00:41:45;;;;;;;6.57;2.80;;;;;18.00;96662.00;;;;8248720;28;20349;-66
2023/07/14 00:45:51;;;;;;;5.53;2.65;;;;;18.00;96659.00;;;;8248263;28;20210;-66
2023/07/14 00:49:55;;;;;;;3.35;2.95;;;;;18.10;96657.00;;;;8258145;28;20810;-66
2023/07/14 00:54:02;;;;;;;4.68;2.80;;;;;18.00;96654.00;;;;8255225;28;20857;-66
2023/07/14 00:58:14;;;;;;;4.65;2.78;;;;;18.00;96655.00;;;;8256192;28;20627;-66
2023/07/14 01:02:22;;;;;;;2.42;2.33;;;;;18.00;96654.00;;;;8253424;28;20337;-66
2023/07/14 01:06:32;;;;;;;3.50;2.42;;;;;18.00;96656.00;;;;8254230;28;20688;-66
2023/07/14 01:10:35;;;;;;;3.65;2.38;;;;;18.00;96653.00;;;;8255791;28;20209;-66
2023/07/14 01:14:46;;;;;;;3.78;2.67;;;;;18.10;96646.00;;;;8248817;28;20211;-65
2023/07/14 01:18:51;;;;;;;7.80;2.80;;;;;18.20;96645.00;;;;8256200;28;20645;-67
2023/07/14 01:23:09;;;;;;;2.92;2.70;;;;;18.20;96650.00;;;;8248612;28;20610;-66
2023/07/14 01:27:16;;;;;;;3.00;2.72;;;;;18.10;96649.00;;;;8256472;28;20696;-67
2023/07/14 01:31:24;;;;;;;3.75;2.72;;;;;18.00;96653.00;;;;8257621;28;20214;-66
2023/07/14 01:35:32;;;;;;;3.03;2.45;;;;;17.90;96643.00;;;;8256819;28;20234;-66
2023/07/14 01:39:36;;;;;;;8.60;3.25;;;;;17.80;96643.00;;;;8256033;28;20202;-67
2023/07/14 01:43:46;;;;;;;3.58;2.67;;;;;17.60;96645.00;;;;8257787;28;20243;-66
2023/07/14 01:47:57;;;;;;;7.53;2.80;;;;;17.50;96638.00;;;;8254995;28;20319;-66
2023/07/14 01:52:05;;;;;;;5.88;3.05;;;;;17.40;96642.00;;;;8254179;28;20203;-66
2023/07/14 01:56:11;;;;;;;7.53;2.97;;;;;17.40;96643.00;;;;8252330;28;20298;-66
2023/07/14 02:00:19;;;;;;;4.45;2.90;;;;;17.30;96641.00;;;;8255669;28;20237;-66
2023/07/14 02:04:27;;;;;;;7.32;3.13;;;;;17.20;96637.00;;;;8254334;28;20241;-66
2023/07/14 02:08:31;;;;;;;5.90;3.00;;;;;17.10;96646.00;;;;8247805;28;20238;-66
2023/07/14 02:12:35;;;;;;;6.65;3.03;;;;;17.10;96635.00;;;;8250468;28;20202;-66
2023/07/14 02:16:40;;;;;;;3.65;2.70;;;;;17.00;96637.00;;;;8255454;28;20290;-67
2023/07/14 02:20:47;;;;;;;3.88;3.20;;;;;16.90;96642.00;;;;8249288;28;20682;-66
2023/07/14 02:25:00;;;;;;;6.45;3.60;;;;;16.70;96646.00;;;;8255542;28;20979;-66
2023/07/14 02:29:11;;;;;;;4.28;3.38;;;;;16.60;96641.00;;;;8252553;28;20207;-66
2023/07/14 02:33:25;;;;;;;4.63;2.90;;;;;16.50;96646.00;;;;8254623;28;20632;-67
2023/07/14 02:38:00;;;;;;;6.65;3.83;;;;;16.40;96645.00;;;;8254246;28;20199;-67
2023/07/14 02:42:05;;;;;;;3.50;3.00;;;;;16.40;96643.00;;;;8249378;28;20238;-66
2023/07/14 02:46:18;;;;;;;7.07;3.22;;;;;16.50;96651.00;;;;8247514;28;20234;-67
2023/07/14 02:50:23;;;;;;;5.45;3.55;;;;;16.40;96654.00;;;;8255344;28;20210;-67
2023/07/14 02:54:29;;;;;;;3.80;3.20;;;;;16.30;96647.00;;;;8252967;28;20209;-66
2023/07/14 02:58:36;;;;;;;6.22;3.33;;;;;16.30;96637.00;;;;8253682;28;20230;-66
2023/07/14 03:02:40;;;;;;;3.78;3.03;;;;;16.20;96641.00;;;;8307481;23;20239;-66
2023/07/14 03:06:44;;;;;;;5.35;2.92;;;;;16.10;96638.00;;;;8207324;28;20784;-67
2023/07/14 03:10:56;;;;;;;6.30;3.22;;;;;16.00;96634.00;;;;8209999;28;20211;-66
2023/07/14 03:15:02;;;;;;;3.75;3.40;;;;;16.00;96641.00;;;;8219863;28;20215;-65
2023/07/14 03:19:05;;;;;;;8.25;3.45;;;;;15.90;96646.00;;;;8222623;28;20753;-66
2023/07/14 03:23:09;;;;;;;6.38;3.30;;;;;15.80;96634.00;;;;8222079;28;20318;-67
2023/07/14 03:27:13;;;;;;;7.40;3.45;;;;;15.70;96629.00;;;;8221352;28;20207;-66
2023/07/14 03:31:17;;;;;;;5.60;3.65;;;;;15.60;96630.00;;;;8219636;28;20254;-66
2023/07/14 03:35:22;;;;;;;4.20;2.97;;;;;15.50;96625.00;;;;8222406;28;20254;-66
2023/07/14 03:39:30;;;;;;;4.32;3.30;;;;;15.50;96630.00;;;;8221688;28;20269;-67
2023/07/14 03:43:33;;;;;;;4.90;3.00;;;;;15.40;96624.00;;;;8221205;28;20266;-65
2023/07/14 03:47:39;;;;;;;5.20;3.17;;;;;15.40;96625.00;;;;8221316;28;20241;-65
2023/07/14 03:51:44;;;;;;;5.75;3.00;;;;;15.40;96627.00;;;;8221563;28;20299;-66
2023/07/14 03:55:49;;;;;;;4.00;2.83;;;;;15.40;96623.00;;;;8214390;28;20207;-66
2023/07/14 03:59:52;;;;;;;3.63;2.60;;;;;15.50;96625.00;;;;8220945;28;20203;-66
2023/07/14 04:03:56;;;;;;;3.65;3.20;;;;;15.50;96625.00;;;;8214873;28;20241;-65
2023/07/14 04:08:03;;;;;;;4.95;3.03;;;;;15.50;96616.00;;;;8210170;28;20238;-66
2023/07/14 04:12:09;;;;;;;3.67;2.97;;;;;15.70;96610.00;;;;8213289;28;20330;-66
2023/07/14 04:16:12;;;;;;;6.22;3.20;;;;;15.70;96609.00;;;;8218798;28;20214;-66
2023/07/14 04:20:20;;;;;;;4.85;3.10;;;;;15.80;96609.00;;;;8220140;28;20298;-66
2023/07/14 04:24:26;;;;;;;4.82;3.05;;;;;15.90;96608.00;;;;8209335;28;20332;-67
2023/07/14 04:28:35;;;;;;;5.32;3.13;;;;;16.10;96606.00;;;;8219348;28;20215;-66
2023/07/14 04:32:46;;;;;;;4.63;3.03;;;;;16.30;96613.00;;;;8221365;28;20207;-66
2023/07/14 04:36:53;;;;;;;9.20;3.35;;;;;16.50;96619.00;;;;8217788;28;20566;-67
2023/07/14 04:40:59;;;;;;;3.30;2.70;;;;;16.80;96621.00;;;;8213548;28;20200;-67
2023/07/14 04:45:08;;;;;;;3.50;3.15;;;;;17.10;96622.00;;;;8220948;28;20798;-66
2023/07/14 04:49:12;;;;;;;7.13;3.53;;;;;17.50;96616.00;;;;8199088;28;20206;-66
2023/07/14 04:53:20;;;;;;;3.83;3.20;;;;;17.80;96622.00;;;;8213285;28;20203;-66
2023/07/14 04:57:23;;;;;;;4.65;3.30;;;;;18.10;96609.00;;;;8220977;28;20211;-66
2023/07/14 05:01:30;;;;;;;5.72;2.80;;;;;18.40;96616.00;;;;8220578;28;20259;-66
2023/07/14 05:05:36;;;;;;;7.40;2.72;;;;;19.00;96614.00;;;;8224704;28;20231;-66
2023/07/14 05:09:39;;;;;;;3.13;2.80;;;;;19.30;96611.00;;;;8225576;28;20298;-65
2023/07/14 05:13:45;;;;;;;4.57;3.20;;;;;19.60;96620.00;;;;8226484;28;20216;-66
2023/07/14 05:17:51;;;;;;;6.28;3.63;;;;;19.80;96615.00;;;;8226367;28;20656;-66
2023/07/14 05:21:56;;;;;;;5.55;3.22;;;;;20.00;96613.00;;;;8226263;28;20258;-66
2023/07/14 05:26:02;;;;;;;4.20;3.47;;;;;20.30;96613.00;;;;8227692;28;20253;-67
2023/07/14 05:30:09;;;;;;;5.25;3.33;;;;;20.80;96608.00;;;;8224197;28;20431;-66
2023/07/14 05:34:14;;;;;;;3.95;2.67;;;;;21.30;96614.00;;;;8225501;28;20208;-66
2023/07/14 05:38:17;;;;;;;7.00;3.13;;;;;21.70;96604.00;;;;8220567;28;20218;-66
2023/07/14 05:42:21;;;;;;;5.30;3.17;;;;;22.10;96606.00;;;;8217882;28;20235;-66
2023/07/14 05:46:24;;;;;;;5.68;2.97;;;;;22.30;96601.00;;;;8224366;28;20290;-66
2023/07/14 05:50:31;;;;;;;4.00;2.60;;;;;22.70;96608.00;;;;8223571;28;20222;-66
2023/07/14 05:54:34;;;;;;;3.03;2.83;;;;;23.20;96619.00;;;;8224930;28;20318;-67
2023/07/14 05:58:40;;;;;;;8.65;3.10;;;;;23.60;96621.00;;;;8225180;28;20693;-68
2023/07/14 06:02:45;;;;;;;5.13;2.60;;;;;23.70;96624.00;;;;8228904;28;20944;-66
2023/07/14 06:06:52;;;;;;;6.22;2.70;;;;;23.60;96637.00;;;;8212294;28;20226;-67
2023/07/14 06:10:58;;;;;;;4.22;2.58;;;;;23.60;96630.00;;;;8218105;28;20230;-66
2023/07/14 06:15:04;;;;;;;3.10;2.65;;;;;23.70;96623.00;;;;8214053;28;20203;-67
2023/07/14 06:19:09;;;;;;;4.68;1.92;;;;;23.80;96628.00;;;;8216931;28;20976;-68
2023/07/14 06:23:14;;;;;;;2.80;2.10;;;;;23.70;96618.00;;;;8221470;28;20247;-67
2023/07/14 06:27:23;;;;;;;7.68;2.13;;;;;23.70;96611.00;;;;8220354;28;20676;-67
2023/07/14 06:31:31;;;;;;;5.53;2.00;;;;;23.60;96612.00;;;;8216854;28;20712;-68
2023/07/14 06:35:35;;;;;;;2.30;2.10;;;;;23.70;96606.00;;;;8209448;28;20529;-70
2023/07/14 06:39:40;;;;;;;2.20;1.77;;;;;24.10;96622.00;;;;8210182;28;20215;-71
2023/07/14 06:43:44;;;;;;;4.32;2.20;;;;;24.40;96614.00;;;;8204422;28;20274;-68
2023/07/14 06:47:47;;;;;;;4.60;2.10;;;;;24.80;96617.00;;;;8221040;28;20238;-68
2023/07/14 06:51:54;;;;;;;2.45;2.00;;;;;25.30;96612.00;;;;8219112;28;20243;-70
2023/07/14 06:56:01;;;;;;;4.93;2.08;;;;;25.50;96615.00;;;;8211924;28;20207;-68
2023/07/14 07:00:09;;;;;;;5.90;2.78;;;;;26.20;96616.00;;;;8204654;28;20295;-69
2023/07/14 07:04:12;;;;;;;4.60;2.30;;;;;26.80;96608.00;;;;8213063;28;20243;-68
2023/07/14 07:08:23;;;;;;;3.50;1.90;;;;;27.00;96603.00;;;;8215657;28;20200;-70
2023/07/14 07:12:36;;;;;;;3.90;2.22;;;;;27.20;96602.00;;;;8216946;28;20293;-68
2023/07/14 07:16:46;;;;;;;3.65;2.45;;;;;27.20;96604.00;;;;8216356;28;20207;-69
2023/07/14 07:20:49;;;;;;;3.53;2.17;;;;;27.60;96605.00;;;;8216521;28;20920;-67
2023/07/14 07:24:55;;;;;;;6.65;2.33;;;;;28.20;96599.00;;;;8200041;28;20277;-73
2023/07/14 07:29:00;;;;;;;3.13;2.20;;;;;28.70;96604.00;;;;8203261;28;20204;-72
2023/07/14 07:33:05;;;;;;;3.42;2.15;;;;;29.10;96613.00;;;;8215355;28;20710;-72
2023/07/14 07:37:13;;;;;;;2.67;2.03;;;;;29.20;96615.00;;;;8212093;28;20227;-72
2023/07/14 07:41:18;;;;;;;2.42;1.88;;;;;29.50;96596.00;;;;8209753;28;20904;-73
2023/07/14 07:45:22;;;;;;;5.72;2.20;;;;;29.70;96603.00;;;;8216463;28;20318;-73
2023/07/14 07:49:26;;;;;;;5.57;2.10;;;;;29.40;96598.00;;;;8204901;28;20295;-73
2023/07/14 07:53:33;;;;;;;2.45;2.10;;;;;29.70;96601.00;;;;8208588;28;20291;-72
2023/07/14 07:57:36;;;;;;;3.35;2.33;;;;;30.10;96600.00;;;;8207397;28;20211;-72
2023/07/14 08:01:45;;;;;;;1.95;1.85;;;;;30.30;96593.00;;;;8213644;28;20815;-71
2023/07/14 08:05:50;;;;;;;3.50;2.47;;;;;30.60;96588.00;;;;8206829;28;20989;-73
2023/07/14 08:09:53;;;;;;;2.88;1.80;;;;;31.00;96585.00;;;;8194900;28;20657;-72
2023/07/14 08:13:58;;;;;;;8.13;2.38;;;;;31.20;96581.00;;;;8209116;28;20210;-73
2023/07/14 08:18:04;;;;;;;3.65;2.05;;;;;31.70;96570.00;;;;8195849;28;20238;-72
2023/07/14 08:22:07;;;;;;;7.85;2.08;;;;;32.40;96571.00;;;;8211695;28;20215;-72
2023/07/14 08:26:14;;;;;;;5.22;2.15;;;;;32.80;96570.00;;;;8200977;28;20226;-72
2023/07/14 08:30:17;;;;;;;6.30;2.00;;;;;33.10;96560.00;;;;8218637;28;20208;-71
2023/07/14 08:34:26;;;;;;;6.38;2.53;;;;;32.40;96566.00;;;;8221255;28;20664;-70
2023/07/14 08:38:34;;;;;;;3.45;2.00;;;;;31.70;96560.00;;;;8209459;28;20218;-70
2023/07/14 08:42:46;;;;;;;5.70;1.70;;;;;31.70;96561.00;;;;8212014;28;20215;-70
2023/07/14 08:47:00;;;;;;;5.78;2.13;;;;;32.00;96564.00;;;;8217400;28;20203;-65
2023/07/14 08:51:15;;;;;;;3.65;1.92;;;;;32.60;96551.00;;;;8219650;28;20314;-73
2023/07/14 08:55:25;;;;;;;2.95;2.03;;;;;32.80;96555.00;;;;8229608;28;20644;-73
2023/07/14 08:59:35;;;;;;;2.42;2.10;;;;;33.10;96560.00;;;;8210908;28;20685;-73
2023/07/14 09:03:44;;;;;;;5.60;1.98;;;;;33.60;96552.00;;;;8217210;28;20248;-73
2023/07/14 09:07:50;;;;;;;3.42;1.83;;;;;34.10;96555.00;;;;8210844;28;20270;-73
2023/07/14 09:12:02;;;;;;;3.35;1.75;;;;;34.60;96551.00;;;;8218359;28;20204;-73
2023/07/14 09:16:07;;;;;;;4.35;1.90;;;;;34.50;96553.00;;;;8225914;28;20214;-74
2023/07/14 09:20:47;;;;;;;4.70;1.70;;;;;34.50;96557.00;;;;8225277;28;20705;-74
2023/07/14 09:24:59;;;;;;;5.70;2.40;;;;;34.90;96551.00;;;;8223667;28;20237;-73
2023/07/14 09:29:12;;;;;;;3.25;2.03;;;;;34.80;96558.00;;;;8222349;28;20208;-75
2023/07/14 09:33:17;;;;;;;3.05;1.63;;;;;33.70;96550.00;;;;8216640;28;20791;-76
2023/07/14 09:37:34;;;;;;;1.60;1.50;;;;;33.70;96539.00;;;;8222288;28;20886;-76
2023/07/14 09:41:39;;;;;;;2.90;2.00;;;;;33.60;96527.00;;;;8211266;28;20196;-78
2023/07/14 09:45:44;;;;;;;5.40;1.55;;;;;34.40;96522.00;;;;8212606;28;20717;-77
2023/07/14 09:49:57;;;;;;;7.53;1.73;;;;;34.70;96532.00;;;;8222098;28;20238;-77
2023/07/14 09:54:09;;;;;;;9.52;1.85;;;;;34.40;96513.00;;;;8215138;28;20258;-77
2023/07/14 09:58:18;;;;;;;4.90;1.70;;;;;34.20;96517.00;;;;8212249;28;20931;-78
2023/07/14 10:02:26;;;;;;;3.78;1.70;;;;;35.00;96510.00;;;;8199662;28;20232;-74
2023/07/14 10:06:30;;;;;;;3.88;1.88;;;;;35.90;96498.00;;;;8208418;28;20239;-74
2023/07/14 10:10:42;;;;;;;4.68;1.90;;;;;35.70;96494.00;;;;8211617;28;20286;-74
2023/07/14 10:14:49;;;;;;;3.90;2.20;;;;;35.80;96501.00;;;;8206565;28;20224;-74
2023/07/14 10:19:00;;;;;;;4.38;1.95;;;;;36.00;96494.00;;;;8206004;28;20847;-73
2023/07/14 10:23:12;;;;;;;2.33;1.77;;;;;36.20;96497.00;;;;8207702;28;20225;-74
2023/07/14 10:27:19;;;;;;;4.50;2.10;;;;;36.10;96478.00;;;;8221124;28;20266;-74
2023/07/14 10:31:30;;;;;;;2.22;1.92;;;;;36.50;96479.00;;;;8219422;28;20298;-73
2023/07/14 10:35:36;;;;;;;4.85;1.98;;;;;36.50;96468.00;;;;8218919;28;20263;-75
2023/07/14 10:39:55;;;;;;;3.15;1.90;;;;;36.50;96459.00;;;;8205603;28;21076;-75
2023/07/14 10:44:03;;;;;;;4.90;1.75;;;;;36.80;96459.00;;;;8210240;28;20314;-73
2023/07/14 10:48:15;;;;;;;3.15;2.00;;;;;36.80;96467.00;;;;8216346;28;20741;-74
2023/07/14 10:52:26;;;;;;;3.28;2.00;;;;;36.90;96460.00;;;;8209650;28;20231;-74
2023/07/14 10:56:37;;;;;;;2.95;1.80;;;;;37.10;96461.00;;;;8198497;28;20271;-74
2023/07/14 11:00:46;;;;;;;3.75;2.10;;;;;37.50;96460.00;;;;8215304;28;20239;-74
2023/07/14 11:05:01;;;;;;;4.00;1.70;;;;;37.10;96455.00;;;;8213500;28;20242;-74
2023/07/14 11:09:14;;;;;;;2.60;1.70;;;;;37.00;96450.00;;;;8213661;28;20208;-75
2023/07/14 11:13:30;;;;;;;5.22;1.70;;;;;36.90;96438.00;;;;8222236;28;20200;-75
2023/07/14 11:17:42;;;;;;;6.05;1.80;;;;;36.20;96430.00;;;;8218090;28;20282;-71
2023/07/14 11:21:51;;;;;;;2.10;1.83;;;;;36.40;96424.00;;;;8212635;28;20601;-69
2023/07/14 11:26:02;;;;;;;3.42;1.83;;;;;37.10;96417.00;;;;8200536;28;20232;-67
2023/07/14 11:30:12;;;;;;;5.03;2.53;;;;;37.10;96403.00;;;;8203899;28;20235;-72
2023/07/14 11:34:27;;;;;;;1.80;1.60;;;;;37.30;96405.00;;;;8218279;28;20693;-72
2023/07/14 11:38:46;;;;;;;2.67;1.80;;;;;37.10;96398.00;;;;8212439;28;20218;-71
2023/07/14 11:42:54;;;;;;;4.65;2.22;;;;;36.40;96398.00;;;;8215684;28;20208;-72
2023/07/14 11:46:58;;;;;;;5.32;2.00;;;;;36.60;96390.00;;;;8214056;28;20231;-73
2023/07/14 11:51:13;;;;;;;3.30;1.95;;;;;36.90;96389.00;;;;8212512;28;20294;-73
2023/07/14 11:55:25;;;;;;;2.10;2.00;;;;;36.80;96388.00;;;;8212084;28;20210;-73
2023/07/14 11:59:33;;;;;;;4.82;2.05;;;;;36.20;96393.00;;;;8192194;28;20307;-76
2023/07/14 12:03:40;;;;;;;2.75;1.63;;;;;35.70;96383.00;;;;8215336;28;20241;-76
2023/07/14 12:08:23;;;;;;;6.78;1.95;;;;;36.00;96380.00;;;;8219565;28;20226;-78
2023/07/14 12:12:31;;;;;;;2.85;1.80;;;;;36.40;96377.00;;;;8213420;28;20285;-78
2023/07/14 12:16:47;;;;;;;2.72;1.95;;;;;36.10;96376.00;;;;8218217;28;20205;-76
2023/07/14 12:21:12;;;;;;;3.67;1.90;;;;;35.90;96375.00;;;;8216350;28;20222;-76
2023/07/14 12:25:21;;;;;;;2.63;1.70;;;;;35.90;96373.00;;;;8200978;28;20238;-75
2023/07/14 12:29:26;;;;;;;4.82;1.92;;;;;35.70;96356.00;;;;8212042;28;20292;-76
2023/07/14 12:33:31;;;;;;;2.83;2.00;;;;;35.40;96366.00;;;;8205341;28;20213;-77
2023/07/14 12:37:34;;;;;;;1.88;1.70;;;;;35.30;96362.00;;;;8208678;28;20314;-75
2023/07/14 12:41:41;;;;;;;4.22;1.92;;;;;35.30;96358.00;;;;8214119;28;20250;-76
2023/07/14 12:45:50;;;;;;;5.80;2.35;;;;;35.60;96361.00;;;;8217239;28;20853;-76
2023/07/14 12:49:55;;;;;;;3.15;1.73;;;;;35.90;96363.00;;;;8211469;28;20219;-75
2023/07/14 12:54:00;;;;;;;1.95;1.70;;;;;35.70;96354.00;;;;8210927;28;20212;-75
2023/07/14 12:58:07;;;;;;;1.98;1.85;;;;;35.40;96355.00;;;;8219061;28;20649;-75
2023/07/14 13:02:16;;;;;;;3.45;1.83;;;;;35.10;96350.00;;;;8209881;28;20314;-75
2023/07/14 13:06:24;;;;;;;2.72;1.83;;;;;34.50;96323.00;;;;8213528;28;20314;-75
2023/07/14 13:10:35;;;;;;;3.50;2.00;;;;;33.80;96330.00;;;;8212102;28;20203;-75
2023/07/14 13:14:43;;;;;;;4.05;2.30;;;;;33.50;96343.00;;;;8209967;28;20212;-74
2023/07/14 13:18:58;;;;;;;5.70;2.40;;;;;33.30;96349.00;;;;8208378;28;20213;-70
2023/07/14 13:23:16;;;;;;;3.35;2.25;;;;;33.20;96330.00;;;;8217612;28;20652;-70
2023/07/14 13:27:20;;;;;;;3.13;2.00;;;;;33.40;96330.00;;;;8222180;28;20267;-70
2023/07/14 13:31:28;;;;;;;2.22;1.60;;;;;33.70;96323.00;;;;8216512;28;20210;-70
2023/07/14 13:35:56;;;;;;;2.05;1.90;;;;;34.10;96331.00;;;;8215971;28;20303;-70
2023/07/14 13:40:02;;;;;;;2.35;1.98;;;;;34.30;96342.00;;;;8220783;28;20298;-72
2023/07/14 13:44:42;;;;;;;4.45;1.88;;;;;34.10;96322.00;;;;8215719;28;20204;-72
2023/07/14 13:48:45;;;;;;;3.58;2.38;;;;;33.80;96328.00;;;;8214795;28;20287;-73
2023/07/14 13:52:52;;;;;;;4.25;2.15;;;;;33.60;96310.00;;;;8207000;28;20231;-75
2023/07/14 13:56:56;;;;;;;4.72;2.00;;;;;33.20;96309.00;;;;8226193;28;20295;-74
2023/07/14 14:01:02;;;;;;;4.18;2.00;;;;;33.20;96304.00;;;;8214880;28;20214;-74
2023/07/14 14:05:13;;;;;;;3.63;1.92;;;;;33.20;96294.00;;;;8220950;28;20234;-73
2023/07/14 14:09:20;;;;;;;3.55;1.80;;;;;33.40;96289.00;;;;8209491;28;20223;-73
2023/07/14 14:13:24;;;;;;;4.60;2.20;;;;;33.50;96284.00;;;;8209306;28;20212;-73
2023/07/14 14:17:36;;;;;;;2.63;2.17;;;;;33.50;96281.00;;;;8195197;28;20294;-73
2023/07/14 14:21:39;;;;;;;3.85;2.25;;;;;33.30;96286.00;;;;8227672;28;20291;-73
2023/07/14 14:25:52;;;;;;;5.72;2.70;;;;;33.40;96278.00;;;;8219567;28;20228;-73
2023/07/14 14:29:56;;;;;;;5.85;2.38;;;;;33.70;96275.00;;;;8216049;28;20243;-73
2023/07/14 14:34:02;;;;;;;3.53;2.17;;;;;33.90;96270.00;;;;8214559;28;20204;-70
2023/07/14 14:38:13;;;;;;;8.32;2.45;;;;;34.10;96265.00;;;;8211239;28;20211;-72
2023/07/14 14:42:35;;;;;;;3.80;2.28;;;;;34.20;96265.00;;;;8205159;28;20231;-72
2023/07/14 14:46:42;;;;;;;2.72;2.10;;;;;34.50;96270.00;;;;8217409;28;20326;-72
2023/07/14 14:50:46;;;;;;;2.50;2.30;;;;;34.80;96259.00;;;;8218359;28;20287;-72
2023/07/14 14:54:49;;;;;;;6.00;2.22;;;;;34.50;96246.00;;;;8217408;28;20565;-72
2023/07/14 14:59:00;;;;;;;2.50;2.28;;;;;34.30;96246.00;;;;8208916;28;20660;-72
2023/07/14 15:03:04;;;;;;;3.45;2.13;;;;;34.10;96240.00;;;;8211603;28;20232;-72
2023/07/14 15:07:12;;;;;;;2.70;2.25;;;;;34.70;96238.00;;;;8207794;28;20235;-73
2023/07/14 15:11:16;;;;;;;2.45;2.10;;;;;35.00;96219.00;;;;8212653;28;20208;-69
2023/07/14 15:15:31;;;;;;;2.13;1.90;;;;;34.40;96213.00;;;;8202238;28;20734;-73
2023/07/14 15:19:34;;;;;;;2.80;2.08;;;;;34.30;96201.00;;;;8219187;28;20294;-71
2023/07/14 15:23:37;;;;;;;2.20;2.00;;;;;34.10;96207.00;;;;8215651;28;20223;-72
2023/07/14 15:27:43;;;;;;;5.70;2.30;;;;;34.10;96194.00;;;;8214409;28;20235;-74
2023/07/14 15:31:52;;;;;;;3.35;2.30;;;;;34.90;96200.00;;;;8211295;28;20191;-74
2023/07/14 15:35:55;;;;;;;6.25;2.40;;;;;35.20;96196.00;;;;8212714;28;20203;-72
2023/07/14 15:40:00;;;;;;;2.95;2.25;;;;;34.80;96197.00;;;;8212548;28;20199;-72
2023/07/14 15:44:10;;;;;;;6.80;2.30;;;;;34.00;96184.00;;;;8212961;28;20708;-72
2023/07/14 15:48:16;;;;;;;5.05;2.35;;;;;33.50;96177.00;;;;8212067;28;20247;-73
2023/07/14 15:52:43;;;;;;;2.83;2.40;;;;;33.30;96166.00;;;;8218919;28;20195;-72
2023/07/14 15:56:46;;;;;;;2.47;2.05;;;;;33.80;96169.00;;;;8210658;28;20196;-72
2023/07/14 16:00:49;;;;;;;2.45;2.25;;;;;34.40;96152.00;;;;8206666;28;20210;-73
2023/07/14 16:04:56;;;;;;;5.85;2.47;;;;;34.80;96160.00;;;;8215566;28;20604;-73
2023/07/14 16:09:05;;;;;;;4.80;2.95;;;;;34.80;96156.00;;;;8200203;28;20293;-71
2023/07/14 16:13:15;;;;;;;2.60;2.30;;;;;35.20;96145.00;;;;8217549;28;20573;-72
2023/07/14 16:17:19;;;;;;;2.90;2.10;;;;;35.60;96146.00;;;;8218311;28;20219;-71
2023/07/14 16:21:28;;;;;;;2.75;2.03;;;;;35.80;96140.00;;;;8220002;28;20283;-71
2023/07/14 16:25:32;;;;;;;3.45;2.25;;;;;36.20;96120.00;;;;8214522;28;20318;-71
2023/07/14 16:29:35;;;;;;;7.07;2.85;;;;;36.10;96112.00;;;;8209048;28;20322;-71
2023/07/14 16:33:40;;;;;;;3.28;2.33;;;;;36.20;96116.00;;;;8211198;28;20338;-71
2023/07/14 16:37:48;;;;;;;5.10;2.45;;;;;36.20;96111.00;;;;8200089;28;20302;-71
2023/07/14 16:41:53;;;;;;;2.35;2.15;;;;;36.30;96114.00;;;;8214048;28;20286;-72
2023/07/14 16:45:58;;;;;;;2.15;1.60;;;;;36.30;96102.00;;;;8216120;28;20238;-72
2023/07/14 16:50:09;;;;;;;3.30;2.33;;;;;36.50;96097.00;;;;8203867;28;20680;-72
2023/07/14 16:54:19;;;;;;;3.03;1.83;;;;;36.40;96094.00;;;;8205293;28;20647;-73
2023/07/14 16:58:24;;;;;;;2.42;1.80;;;;;36.60;96093.00;;;;8218704;28;20224;-71
2023/07/14 17:02:30;;;;;;;2.10;2.00;;;;;36.40;96093.00;;;;8209419;28;20324;-72
2023/07/14 17:06:44;;;;;;;2.08;1.88;;;;;36.20;96097.00;;;;8213569;28;20237;-71
2023/07/14 17:10:54;;;;;;;5.32;2.00;;;;;35.30;96091.00;;;;8219427;28;20557;-72
2023/07/14 17:14:58;;;;;;;3.33;2.20;;;;;34.70;96100.00;;;;8225078;28;20629;-71
2023/07/14 17:19:11;;;;;;;3.22;2.08;;;;;34.50;96103.00;;;;8210027;28;20753;-70
2023/07/14 17:23:18;;;;;;;2.85;2.60;;;;;34.40;96096.00;;;;8202848;28;20202;-71
2023/07/14 17:27:22;;;;;;;2.03;1.92;;;;;34.70;96090.00;;;;8222095;28;20236;-71
2023/07/14 17:31:25;;;;;;;3.42;2.20;;;;;35.20;96089.00;;;;8205096;28;20196;-73
2023/07/14 17:35:35;;;;;;;4.43;2.13;;;;;35.50;96087.00;;;;8212953;28;20259;-71
2023/07/14 17:39:43;;;;;;;3.10;1.90;;;;;35.60;96085.00;;;;8222654;28;20199;-70
2023/07/14 17:43:58;;;;;;;4.90;2.20;;;;;35.90;96094.00;;;;8219395;28;20207;-73
2023/07/14 17:48:01;;;;;;;4.22;2.10;;;;;36.10;96099.00;;;;8213240;28;20700;-70
2023/07/14 17:52:15;;;;;;;4.38;2.00;;;;;36.20;96089.00;;;;8201862;28;20211;-73
2023/07/14 17:56:21;;;;;;;3.90;2.10;;;;;36.10;96090.00;;;;8209417;28;20204;-72
2023/07/14 18:00:30;;;;;;;5.65;1.75;;;;;35.80;96092.00;;;;8217910;28;20258;-73
2023/07/14 18:04:34;;;;;;;2.10;1.90;;;;;35.00;96087.00;;;;8225698;28;20271;-71
2023/07/14 18:08:39;;;;;;;2.15;2.03;;;;;34.20;96092.00;;;;8212707;28;20275;-71
2023/07/14 18:12:43;;;;;;;3.83;2.47;;;;;33.20;96099.00;;;;8216469;28;20207;-71
2023/07/14 18:16:47;;;;;;;4.18;2.20;;;;;32.30;96099.00;;;;8208721;28;20829;-70
2023/07/14 18:20:52;;;;;;;4.78;2.10;;;;;31.60;96105.00;;;;8210555;28;20239;-71
2023/07/14 18:24:56;;;;;;;7.43;2.75;;;;;31.10;96107.00;;;;8216443;28;20287;-70
2023/07/14 18:29:06;;;;;;;3.50;2.00;;;;;30.50;96104.00;;;;8210830;28;20235;-71
2023/07/14 18:33:16;;;;;;;6.32;2.20;;;;;29.90;96096.00;;;;8210511;28;20246;-70
2023/07/14 18:37:23;;;;;;;3.35;2.25;;;;;29.30;96098.00;;;;8209607;28;20243;-70
2023/07/14 18:41:27;;;;;;;3.63;2.20;;;;;28.90;96094.00;;;;8215389;28;20283;-70
2023/07/14 18:45:32;;;;;;;2.63;2.17;;;;;28.50;96099.00;;;;8215935;28;20294;-71
2023/07/14 18:49:37;;;;;;;2.30;2.08;;;;;28.20;96097.00;;;;8218991;28;20231;-71
2023/07/14 18:53:40;;;;;;;3.53;2.22;;;;;27.80;96102.00;;;;8212462;28;20219;-70
2023/07/14 18:57:48;;;;;;;4.18;2.28;;;;;27.30;96104.00;;;;8215903;28;20254;-71
2023/07/14 19:01:51;;;;;;;3.78;2.20;;;;;26.80;96103.00;;;;8220193;28;20199;-71
2023/07/14 19:05:57;;;;;;;6.15;2.40;;;;;26.30;96107.00;;;;8207902;28;20220;-71
2023/07/14 19:10:00;;;;;;;2.47;2.28;;;;;25.70;96100.00;;;;8214126;28;20927;-70
2023/07/14 19:14:04;;;;;;;2.65;1.90;;;;;25.10;96103.00;;;;8219226;28;20204;-70
2023/07/14 19:18:17;;;;;;;4.90;2.50;;;;;24.70;96103.00;;;;8217648;28;20231;-69
2023/07/14 19:22:24;;;;;;;4.22;2.30;;;;;24.30;96103.00;;;;8202103;28;20610;-70
2023/07/14 19:26:30;;;;;;;6.25;1.98;;;;;23.80;96095.00;;;;8225620;28;20203;-70
2023/07/14 19:30:34;;;;;;;4.10;2.60;;;;;23.60;96098.00;;;;8203605;28;20311;-71
2023/07/14 19:34:49;;;;;;;3.20;2.47;;;;;23.30;96100.00;;;;8221385;28;20207;-69
2023/07/14 19:38:54;;;;;;;3.92;2.10;;;;;22.90;96102.00;;;;8219534;28;20218;-70
2023/07/14 19:43:02;;;;;;;4.63;2.67;;;;;22.70;96107.00;;;;8209363;28;20669;-67
2023/07/14 19:47:15;;;;;;;2.90;2.60;;;;;22.50;96103.00;;;;8209348;28;20254;-68
2023/07/14 19:51:21;;;;;;;3.47;2.33;;;;;22.40;96103.00;;;;8210831;28;20720;-69
2023/07/14 19:55:27;;;;;;;6.68;2.40;;;;;22.30;96101.00;;;;8210552;28;20200;-68
2023/07/14 19:59:32;;;;;;;3.55;2.42;;;;;22.30;96106.00;;;;8205871;28;20643;-69
2023/07/14 20:03:36;;;;;;;6.97;2.70;;;;;22.10;96100.00;;;;8210861;28;20238;-67
2023/07/14 20:07:42;;;;;;;6.13;2.80;;;;;22.00;96100.00;;;;8215096;28;20342;-68
2023/07/14 20:11:47;;;;;;;8.38;2.75;;;;;21.80;96103.00;;;;8216008;28;20234;-69
2023/07/14 20:15:52;;;;;;;7.25;2.50;;;;;21.50;96109.00;;;;8213621;28;20207;-68
2023/07/14 20:19:56;;;;;;;4.53;2.47;;;;;21.30;96108.00;;;;8220140;28;20203;-68
2023/07/14 20:24:02;;;;;;;2.90;2.65;;;;;21.10;96102.00;;;;8212491;28;20211;-67
2023/07/14 20:28:13;;;;;;;4.63;2.63;;;;;21.10;96102.00;;;;8218420;28;20396;-67
2023/07/14 20:32:23;;;;;;;3.75;2.92;;;;;21.00;96100.00;;;;8196399;28;20235;-67
2023/07/14 20:36:31;;;;;;;2.92;2.53;;;;;20.70;96097.00;;;;8213946;28;20214;-69
2023/07/14 20:40:36;;;;;;;2.92;2.70;;;;;20.60;96099.00;;;;8210604;28;20239;-67